createdAt,value
2019-03-30T00:00:34.808Z,981.25
2019-03-30T00:04:05.044Z,981.45
2019-03-30T00:07:35.156Z,981.49
2019-03-30T00:11:05.350Z,981.33
2019-03-30T00:14:35.493Z,981.07
2019-03-30T00:18:05.517Z,980.62
2019-03-30T00:21:35.648Z,980.61
2019-03-30T00:25:05.904Z,980.82
2019-03-30T00:28:36.024Z,980.96
2019-03-30T00:32:06.160Z,981.35
2019-03-30T00:35:36.144Z,981.82
2019-03-30T00:39:06.777Z,981.74
2019-03-30T00:42:37.785Z,982.04
2019-03-30T00:46:07.803Z,981.81
2019-03-30T00:49:48.389Z,981.64
2019-03-30T00:53:19.380Z,981.5
2019-03-30T00:56:49.438Z,981.19
2019-03-30T01:00:19.956Z,981.11
2019-03-30T01:03:49.985Z,981.13
2019-03-30T01:07:20.044Z,981.07
2019-03-30T01:10:50.202Z,980.81
2019-03-30T01:14:20.360Z,980.74
2019-03-30T01:17:50.570Z,980.59
2019-03-30T01:21:20.676Z,980.65
2019-03-30T01:24:50.698Z,980.7
2019-03-30T01:28:20.793Z,980.49
2019-03-30T01:31:50.852Z,980.23
2019-03-30T01:35:21.089Z,980.13
2019-03-30T01:38:51.239Z,980.22
2019-03-30T01:42:21.324Z,980.69
2019-03-30T01:45:52.165Z,980.53
2019-03-30T01:49:22.303Z,980.48
2019-03-30T01:52:52.352Z,980.61
2019-03-30T01:56:22.539Z,980.52
2019-03-30T01:59:52.738Z,980.56
2019-03-30T02:00:16.088Z,980.45
2019-03-30T02:03:46.132Z,980.56
2019-03-30T02:07:16.355Z,980.67
2019-03-30T02:10:46.993Z,980.83
2019-03-30T02:14:17.121Z,981.05
2019-03-30T02:17:47.163Z,981.34
2019-03-30T02:21:17.168Z,981.61
2019-03-30T02:24:47.307Z,981.86
2019-03-30T02:28:17.475Z,982.22
2019-03-30T02:31:47.534Z,982.03
2019-03-30T02:35:17.653Z,981.8
2019-03-30T02:38:47.663Z,981.56
2019-03-30T02:42:17.789Z,981.52
2019-03-30T02:45:47.918Z,981.39
2019-03-30T02:49:18.335Z,981.41
2019-03-30T02:52:48.343Z,981.34
2019-03-30T02:56:18.392Z,981.27
2019-03-30T02:59:48.490Z,981.26
2019-03-30T03:03:18.519Z,981.56
2019-03-30T03:06:48.638Z,981.84
2019-03-30T03:10:19.035Z,981.88
2019-03-30T03:13:49.235Z,981.82
2019-03-30T03:17:19.273Z,981.74
2019-03-30T03:21:06.168Z,981.47
2019-03-30T03:24:37.748Z,981.49
2019-03-30T03:28:08.018Z,981.43
2019-03-30T03:31:38.036Z,981.29
2019-03-30T03:35:08.375Z,981.28
2019-03-30T03:38:38.431Z,981.41
2019-03-30T03:42:08.901Z,981.28
2019-03-30T03:45:38.923Z,980.93
2019-03-30T03:49:09.099Z,981.19
2019-03-30T03:52:40.196Z,981.48
2019-03-30T03:56:12.274Z,981.64
2019-03-30T03:59:42.632Z,981.31
2019-03-30T04:00:16.173Z,981.24
2019-03-30T04:03:51.041Z,981.03
2019-03-30T04:07:22.442Z,981.02
2019-03-30T04:10:55.128Z,981.34
2019-03-30T04:14:25.572Z,981.44
2019-03-30T04:17:55.773Z,981.53
2019-03-30T04:21:42.418Z,981.58
2019-03-30T04:25:16.361Z,981.69
2019-03-30T04:28:46.458Z,981.67
2019-03-30T04:32:16.682Z,982.3
2019-03-30T04:35:46.833Z,982.82
2019-03-30T04:39:17.010Z,983.42
2019-03-30T04:42:47.140Z,983.78
2019-03-30T04:46:17.231Z,983.95
2019-03-30T04:49:47.264Z,984.31
2019-03-30T04:53:18.438Z,984.79
2019-03-30T04:56:48.644Z,985.41
2019-03-30T05:00:18.840Z,985.81
2019-03-30T05:03:48.806Z,986.35
2019-03-30T05:07:18.892Z,986.85
2019-03-30T05:10:49.047Z,986.96
2019-03-30T05:14:19.314Z,987.07
2019-03-30T05:17:49.351Z,987.43
2019-03-30T05:21:19.546Z,987.94
2019-03-30T05:24:49.572Z,988.44
2019-03-30T05:28:19.679Z,988.92
2019-03-30T05:31:49.755Z,989.51
2019-03-30T05:35:19.912Z,990.43
2019-03-30T05:38:49.978Z,991.42
2019-03-30T05:42:20.104Z,992.09
2019-03-30T05:45:50.140Z,992.66
2019-03-30T05:49:20.246Z,993.4
2019-03-30T05:52:50.365Z,993.82
2019-03-30T05:56:21.428Z,994.49
2019-03-30T05:59:51.465Z,995.05
2019-03-30T06:00:19.068Z,995.14
2019-03-30T06:03:49.091Z,995.51
2019-03-30T06:07:19.117Z,996.04
2019-03-30T06:10:49.232Z,996.6
2019-03-30T06:14:19.349Z,996.87
2019-03-30T06:17:49.485Z,996.82
2019-03-30T06:21:19.702Z,997.44
2019-03-30T06:24:49.908Z,997.89
2019-03-30T06:28:19.925Z,998.28
2019-03-30T06:31:49.932Z,998.57
2019-03-30T06:35:20.188Z,999.05
2019-03-30T06:38:50.461Z,999.35
2019-03-30T06:42:20.472Z,999.88
2019-03-30T06:45:50.646Z,1000.43
2019-03-30T06:49:20.783Z,1000.94
2019-03-30T06:52:57.475Z,1001.34
2019-03-30T06:56:29.388Z,1001.1
2019-03-30T06:59:59.521Z,1001.18
2019-03-30T07:03:29.622Z,1001.17
2019-03-30T07:06:59.844Z,1001.72
2019-03-30T07:10:29.969Z,1001.98
2019-03-30T07:14:03.367Z,1002.64
2019-03-30T07:17:43.355Z,1003.3
2019-03-30T07:21:13.469Z,1003.72
2019-03-30T07:24:43.525Z,1004.41
2019-03-30T07:28:13.662Z,1004.56
2019-03-30T07:31:43.742Z,1004.39
2019-03-30T07:35:13.845Z,1004.55
2019-03-30T07:38:43.992Z,1005.43
2019-03-30T07:42:14.048Z,1005
2019-03-30T07:45:44.094Z,1004.77
2019-03-30T07:49:45.710Z,1005.41
2019-03-30T07:53:26.420Z,1006.07
2019-03-30T07:57:05.056Z,1006.63
2019-03-30T08:00:16.249Z,1007.27
2019-03-30T08:03:46.345Z,1008
2019-03-30T08:07:16.407Z,1008.47
2019-03-30T08:10:46.498Z,1010.55
2019-03-30T08:14:16.565Z,1011.85
2019-03-30T08:17:46.721Z,1012.3
2019-03-30T08:21:16.807Z,1013.14
2019-03-30T08:24:47.014Z,1013.44
2019-03-30T08:28:17.131Z,1014.57
2019-03-30T08:31:49.928Z,1015.31
2019-03-30T08:35:20.156Z,1015.79
2019-03-30T08:38:50.351Z,1016.54
2019-03-30T08:42:21.096Z,1018.05
2019-03-30T08:45:51.181Z,1019.05
2019-03-30T08:49:21.289Z,1019.9
2019-03-30T08:52:51.404Z,1019.49
2019-03-30T08:56:21.393Z,1020.24
2019-03-30T08:59:52.450Z,1019.61
2019-03-30T09:03:22.466Z,1020.7
2019-03-30T09:06:52.575Z,1020.8
2019-03-30T09:10:22.682Z,1021.19
2019-03-30T09:13:52.766Z,1020.95
2019-03-30T09:17:22.752Z,1019.8
2019-03-30T09:20:52.842Z,1020.32
2019-03-30T09:24:23.036Z,1020.99
2019-03-30T09:27:53.203Z,1020.73
2019-03-30T09:31:23.308Z,1020.59
2019-03-30T09:34:53.335Z,1018.84
2019-03-30T09:38:23.396Z,1018.77
2019-03-30T09:41:53.528Z,1018.62
2019-03-30T09:45:23.752Z,1018.51
2019-03-30T09:48:53.818Z,1018.8
2019-03-30T09:52:23.844Z,1019.16
2019-03-30T09:55:53.960Z,1019.48
2019-03-30T09:59:23.991Z,1020.37
2019-03-30T10:00:17.008Z,1020.86
2019-03-30T10:03:47.092Z,1021.38
2019-03-30T10:07:17.177Z,1021.3
2019-03-30T10:10:47.324Z,1022.03
2019-03-30T10:14:17.379Z,1023.86
2019-03-30T10:17:47.445Z,1024.51
2019-03-30T10:21:17.542Z,1025.73
2019-03-30T10:24:47.761Z,1027.29
2019-03-30T10:28:17.774Z,1025.07
2019-03-30T10:31:47.850Z,1025.99
2019-03-30T10:35:18.046Z,1029.42
2019-03-30T10:38:48.294Z,1029.69
2019-03-30T10:42:18.478Z,1026.2
2019-03-30T10:45:48.585Z,1025.58
2019-03-30T10:49:18.708Z,1026.59
2019-03-30T10:52:48.899Z,1026.84
2019-03-30T10:56:18.963Z,1025.88
2019-03-30T10:59:49.200Z,1023.68
2019-03-30T11:03:20.225Z,1023.79
2019-03-30T11:06:50.302Z,1022.88
2019-03-30T11:10:20.418Z,1023.04
2019-03-30T11:13:50.620Z,1023.65
2019-03-30T11:17:20.720Z,1024.05
2019-03-30T11:20:50.746Z,1023.58
2019-03-30T11:24:20.782Z,1022.8
2019-03-30T11:27:50.928Z,1023.27
2019-03-30T11:31:20.994Z,1023.81
2019-03-30T11:34:51.102Z,1024.94
2019-03-30T11:38:21.196Z,1025.59
2019-03-30T11:41:51.272Z,1025.54
2019-03-30T11:45:21.348Z,1028.6
2019-03-30T11:48:51.437Z,1027.12
2019-03-30T11:52:21.550Z,1025.42
2019-03-30T11:55:51.706Z,1023.94
2019-03-30T11:59:21.787Z,1024.14
2019-03-30T12:00:16.132Z,1025.54
2019-03-30T12:03:47.228Z,1026.47
2019-03-30T12:07:17.324Z,1024.78
2019-03-30T12:10:47.351Z,1024.15
2019-03-30T12:14:17.306Z,1026.48
2019-03-30T12:17:47.406Z,1027.34
2019-03-30T12:21:17.509Z,1026.2
2019-03-30T12:24:47.685Z,1027.19
2019-03-30T12:28:17.791Z,1025.49
2019-03-30T12:31:47.937Z,1023.44
2019-03-30T12:35:18.163Z,1022.34
2019-03-30T12:38:48.335Z,1023.37
2019-03-30T12:42:18.446Z,1023.54
2019-03-30T12:45:48.592Z,1024.38
2019-03-30T12:49:18.578Z,1025.7
2019-03-30T12:52:48.674Z,1025.57
2019-03-30T12:56:18.800Z,1024.97
2019-03-30T12:59:48.936Z,1026.7
2019-03-30T13:03:19.003Z,1030.7
2019-03-30T13:06:50.059Z,1033.6
2019-03-30T13:10:20.095Z,1036.07
2019-03-30T13:13:50.343Z,1037.78
2019-03-30T13:17:20.528Z,1038.02
2019-03-30T13:20:50.564Z,1037.41
2019-03-30T13:24:20.601Z,1037.82
2019-03-30T13:27:53.274Z,1039.74
2019-03-30T13:31:23.633Z,1044.03
2019-03-30T13:34:53.791Z,1044.63
2019-03-30T13:38:25.842Z,1045.33
2019-03-30T13:41:56.063Z,1041.57
2019-03-30T13:45:26.243Z,1036.14
2019-03-30T13:48:56.386Z,1040.81
2019-03-30T13:52:26.603Z,1038.93
2019-03-30T13:55:56.799Z,1042.09
2019-03-30T13:59:27.104Z,1044.05
2019-03-30T14:00:16.053Z,1044.52
2019-03-30T14:03:46.100Z,1044.22
2019-03-30T14:07:17.204Z,1042.81
2019-03-30T14:10:47.344Z,1043.66
2019-03-30T14:14:17.468Z,1044.94
2019-03-30T14:17:47.565Z,1050.55
2019-03-30T14:21:17.674Z,1052.61
2019-03-30T14:24:47.812Z,1050.2
2019-03-30T14:28:17.934Z,1043.12
2019-03-30T14:31:48.034Z,1041.61
2019-03-30T14:35:18.117Z,1036.83
2019-03-30T14:38:48.214Z,1036.67
2019-03-30T14:42:18.290Z,1037.08
2019-03-30T14:45:48.500Z,1034.84
2019-03-30T14:49:18.603Z,1039.41
2019-03-30T14:52:48.718Z,1040.65
2019-03-30T14:56:18.845Z,1040.12
2019-03-30T14:59:48.922Z,1041.93
2019-03-30T15:03:19.038Z,1042.74
2019-03-30T15:06:49.145Z,1041.23
2019-03-30T15:10:20.131Z,1039.2
2019-03-30T15:13:50.647Z,1037.55
2019-03-30T15:17:20.695Z,1035.96
2019-03-30T15:20:50.850Z,1035.08
2019-03-30T15:24:20.881Z,1035.79
2019-03-30T15:27:51.004Z,1038.15
2019-03-30T15:31:21.029Z,1039.27
2019-03-30T15:34:51.226Z,1038.4
2019-03-30T15:38:22.821Z,1035.61
2019-03-30T15:41:53.028Z,1032.44
2019-03-30T15:45:23.164Z,1029.56
2019-03-30T15:48:53.253Z,1027.25
2019-03-30T15:52:23.277Z,1027.05
2019-03-30T15:55:53.325Z,1025.91
2019-03-30T15:59:23.449Z,1026.09
2019-03-30T16:00:16.410Z,1026.2
2019-03-30T16:03:46.525Z,1026.37
2019-03-30T16:07:16.599Z,1025.23
2019-03-30T16:10:47.667Z,1024.45
2019-03-30T16:14:17.773Z,1022.98
2019-03-30T16:17:48.022Z,1020.9
2019-03-30T16:21:18.115Z,1018.72
2019-03-30T16:24:48.231Z,1015.91
2019-03-30T16:28:18.268Z,1013.22
2019-03-30T16:31:48.365Z,1011.27
2019-03-30T16:35:18.450Z,1009.44
2019-03-30T16:38:48.637Z,1007.86
2019-03-30T16:42:18.723Z,1007.11
2019-03-30T16:45:48.920Z,1006.31
2019-03-30T16:49:19.044Z,1005.43
2019-03-30T16:52:49.126Z,1004.48
2019-03-30T16:56:19.146Z,1003.93
2019-03-30T16:59:49.293Z,1002.75
2019-03-30T17:03:19.348Z,1001.93
2019-03-30T17:06:49.456Z,1001.25
2019-03-30T17:10:19.549Z,1000.69
2019-03-30T17:13:49.950Z,999.95
2019-03-30T17:17:20.015Z,999.59
2019-03-30T17:20:50.182Z,999.13
2019-03-30T17:24:20.336Z,998.33
2019-03-30T17:27:58.029Z,997.97
2019-03-30T17:31:28.976Z,997.56
2019-03-30T17:34:59.105Z,997.19
2019-03-30T17:38:29.161Z,997.09
2019-03-30T17:41:59.316Z,996.96
2019-03-30T17:45:29.554Z,996.69
2019-03-30T17:48:59.667Z,996.32
2019-03-30T17:52:29.719Z,996.07
2019-03-30T17:56:01.821Z,995.55
2019-03-30T17:59:32.195Z,995.33
2019-03-30T18:00:17.167Z,995.18
2019-03-30T18:03:47.322Z,995.15
2019-03-30T18:07:17.446Z,994.97
2019-03-30T18:10:47.573Z,994.71
2019-03-30T18:14:17.787Z,994.51
2019-03-30T18:17:47.864Z,994.56
2019-03-30T18:21:17.951Z,994.4
2019-03-30T18:25:07.765Z,994.32
2019-03-30T18:28:37.900Z,994.35
2019-03-30T18:32:43.272Z,994.22
2019-03-30T18:36:56.501Z,993.93
2019-03-30T18:40:28.205Z,993.68
2019-03-30T18:43:58.320Z,993.29
2019-03-30T18:47:28.393Z,992.96
2019-03-30T18:50:59.764Z,992.56
2019-03-30T18:54:30.419Z,992.21
2019-03-30T18:58:00.436Z,992.39
2019-03-30T19:01:30.569Z,992.72
2019-03-30T19:05:00.707Z,992.65
2019-03-30T19:08:30.778Z,992.79
2019-03-30T19:12:01.228Z,992.79
2019-03-30T19:15:32.265Z,992.98
2019-03-30T19:19:02.532Z,993.2
2019-03-30T19:22:32.597Z,993.13
2019-03-30T19:26:02.791Z,992.54
2019-03-30T19:29:32.938Z,992.36
2019-03-30T19:33:03.133Z,992.22
2019-03-30T19:36:33.299Z,992.11
2019-03-30T19:40:03.738Z,991.65
2019-03-30T19:43:33.860Z,991.59
2019-03-30T19:47:03.930Z,991.57
2019-03-30T19:50:34.223Z,991.67
2019-03-30T19:54:04.269Z,991.73
2019-03-30T19:57:34.348Z,991.94
2019-03-30T20:00:16.528Z,991.82
2019-03-30T20:03:46.727Z,991.79
2019-03-30T20:07:16.892Z,991.7
2019-03-30T20:10:47.119Z,991.5
2019-03-30T20:14:17.213Z,991.58
2019-03-30T20:17:47.449Z,991.46
2019-03-30T20:21:17.468Z,991.24
2019-03-30T20:24:47.551Z,991.32
2019-03-30T20:28:17.619Z,991.15
2019-03-30T20:31:47.762Z,991.15
2019-03-30T20:35:17.861Z,991.14
2019-03-30T20:38:48.044Z,991.45
2019-03-30T20:42:18.233Z,991.5
2019-03-30T20:45:48.385Z,991.53
2019-03-30T20:49:18.344Z,991.49
2019-03-30T20:52:48.408Z,991.19
2019-03-30T20:56:18.443Z,990.57
2019-03-30T20:59:48.630Z,989.9
2019-03-30T21:03:18.784Z,990.11
2019-03-30T21:06:48.921Z,990.22
2019-03-30T21:10:19.007Z,990.54
2019-03-30T21:13:49.173Z,990.54
2019-03-30T21:17:19.348Z,990.3
2019-03-30T21:20:50.403Z,990.46
2019-03-30T21:24:20.500Z,990.4
2019-03-30T21:27:50.642Z,990.5
2019-03-30T21:31:20.822Z,990.43
2019-03-30T21:34:50.916Z,990.66
2019-03-30T21:38:20.974Z,990.7
2019-03-30T21:41:51.067Z,990.64
2019-03-30T21:45:21.284Z,990.68
2019-03-30T21:48:51.290Z,990.2
2019-03-30T21:52:21.441Z,989.96
2019-03-30T21:55:51.482Z,989.87
2019-03-30T21:59:21.645Z,990.26
2019-03-30T22:00:38.876Z,990.19
2019-03-30T22:04:09.061Z,990.36
2019-03-30T22:07:39.187Z,990.45
2019-03-30T22:11:09.261Z,990.58
2019-03-30T22:14:39.340Z,990.71
2019-03-30T22:18:09.544Z,990.69
2019-03-30T22:21:39.798Z,990.38
2019-03-30T22:25:10.016Z,990.15
2019-03-30T22:28:40.056Z,988.67
2019-03-30T22:32:10.119Z,988.63
2019-03-30T22:35:40.331Z,988.94
2019-03-30T22:39:10.389Z,989.02
2019-03-30T22:42:40.495Z,988.87
2019-03-30T22:46:10.660Z,988.91
2019-03-30T22:49:40.666Z,988.64
2019-03-30T22:53:10.980Z,988.86
2019-03-30T22:56:41.127Z,988.83
2019-03-30T23:00:51.189Z,988.86
2019-03-30T23:04:21.324Z,988.67
2019-03-30T23:07:51.454Z,988.44
2019-03-30T23:11:21.575Z,988.37
2019-03-30T23:14:51.657Z,988.05
2019-03-30T23:18:21.747Z,987.59
2019-03-30T23:21:52.005Z,987.77
2019-03-30T23:25:22.178Z,987.77
2019-03-30T23:28:52.324Z,987.93
2019-03-30T23:32:22.450Z,987.91
2019-03-30T23:35:52.586Z,987.7
2019-03-30T23:39:22.601Z,987.71
2019-03-30T23:42:52.747Z,987.8
2019-03-30T23:46:22.843Z,987.96
2019-03-30T23:49:52.885Z,987.96
2019-03-30T23:53:22.849Z,988
2019-03-30T23:56:52.861Z,987.93
